This is the latest recevied weather packets stored in our database for station/object KR0L-13. If no packets are shown the sender has not sent any weather packets the latest 10 day(s).
| Time | Temp. | Humidity | Pressure | Rain* | Wind** | Luminosity | Snow |
|---|---|---|---|---|---|---|---|
| 1777172421 | 16.67° C | 90% | 1008.1 hPa | 0 mm | - | - | - |
| 1777171821 | 17.22° C | 90% | 1008.1 hPa | 0 mm | - | - | - |
| 1777171220 | 17.22° C | 89% | 1008.2 hPa | 0 mm | - | - | - |
| 1777170621 | 17.78° C | 88% | 1008.2 hPa | 0 mm | - | - | - |
| 1777170021 | 17.78° C | 87% | 1007.7 hPa | 0.25 mm | - | - | - |
| 1777169420 | 18.33° C | 86% | 1007.5 hPa | 1.78 mm | - | - | - |
| 1777168821 | 18.89° C | 84% | 1007.6 hPa | 1.78 mm | - | - | - |
| 1777168220 | 18.89° C | 81% | 1007.6 hPa | 1.78 mm | - | - | - |
| 1777167620 | 18.89° C | 80% | 1007.7 hPa | 1.78 mm | - | - | - |
| 1777167021 | 19.44° C | 80% | 1007.6 hPa | 1.78 mm | - | - | - |
| 1777166421 | 20° C | 76% | 1007.4 hPa | 1.52 mm | - | - | - |
| 1777165820 | 21.11° C | 71% | 1007.4 hPa | 0 mm | - | - | - |
| 1777165221 | 21.11° C | 69% | 1007 hPa | 0 mm | - | - | - |
| 1777164621 | 21.67° C | 68% | 1007 hPa | 0 mm | - | - | - |
| 1777164020 | 21.67° C | 67% | 1007 hPa | 0 mm | - | - | - |
| 1777163420 | 21.67° C | 67% | 1006.9 hPa | 0 mm | - | - | - |
| 1777162820 | 21.67° C | 67% | 1006.6 hPa | 0 mm | - | - | - |
| 1777162221 | 21.67° C | 67% | 1006.6 hPa | 0 mm | - | - | - |
| 1777161620 | 21.67° C | 66% | 1006.4 hPa | 0 mm | - | - | - |
| 1777161020 | 21.67° C | 66% | 1006.2 hPa | 0 mm | - | - | - |
| 1777160420 | 21.67° C | 65% | 1006.3 hPa | 0 mm | - | - | - |
| 1777159820 | 21.67° C | 65% | 1005.6 hPa | 0 mm | - | - | - |
| 1777159220 | 22.22° C | 63% | 1005.7 hPa | 0 mm | - | - | - |
| 1777158620 | 22.22° C | 62% | 1006 hPa | 0 mm | - | - | - |
| 1777158020 | 22.22° C | 61% | 1005.8 hPa | 0 mm | - | - | - |
* Rain latest hour (hover to see other rain measurements)
** Current wind speed in m/s (hover to see current wind gust speed)